Camp Sherman, Oregon
Current Conditions -  °F | °C
As of 5:56 AM on Thursday 29 Jan 2015 (Local Time) from KRDM Reporting Station
Moderate Fog Moderate Fog  
Wind Chill: 35°   Ceiling: 300
Heat Index: 35°   Visibility: 0.5mi
Dew Point: 35°   Wind: 0mph
Humidity: 100%   Direction: NA
Pressure: 30.34"   Gusts: NA
Location:  44.46°N, 121.64°W
Report Text: KRDM 291356Z 00000KT 1/2SM FG VV003 02/02 A3034 RMK AO2 SLP286 T00170017
Loading
Personal Weather Stations






























Interactive Weather Map New forecast layout! Learn more

10-Day Weather Forecast

Advertisements
Track Severe Weather on mobile